Charlton, Massachusetts
Current Conditions -  °F | °C
As of 11:07 AM on Wednesday 22 Oct 2014 (Local Time) from KORH Reporting Station
Light Rain Light Rain  
Wind Chill: 40°   Ceiling: 300
Heat Index: 47°   Visibility: 2.5mi
Dew Point: 46°   Wind: 17mph
Humidity: 97%   Direction: 30°NNE
Pressure: 30"   Gusts: 23mph
Location:  42.14°N, 71.97°W
Report Text: KORH 221507Z 03015G20KT 2 1/2SM R11/5000VP6000FT -RA BR OVC003 08/08 A3000 RMK AO2 P0000 T00830078
Loading
Personal Weather Stations






























Interactive Weather Map
Tropical Storm Tracking
New forecast layout! Learn more

10-Day Weather Forecast

Advertisements
Track Severe Weather on mobile